Terminal Aerodrome Forecast
Issued by NWS Des Moines, IA

Home | Current Version | Previous Version | Text Only | Print | Product List | Glossary On
Versions: 1 2 3 4 5 6 7 8 9 10 11 12 13 14 15 16 17 18 19 20 21 22 23 24 25 26 27 28 29 30 31 32 33 34 35 36 37 38 39 40 41 42 43 44
000
FTUS43 KDMX 181735
TAFDSM
TAF
KDSM 181735Z 1818/1918 18023G32KT P6SM FEW250 WS020/21040KT
     FM182100 19015G22KT P6SM FEW250
     FM190000 18012KT P6SM FEW250 WS020/20040KT
     FM190600 15006KT 6SM BR SCT018 BKN035
     FM190900 12006KT 5SM -RA OVC010
     FM191300 10007KT 3SM -RA OVC005=

USA.gov is the U.S. government's official web portal to all federal, state and local government web resources and services.